sensor_id;sensor_type;location;lat;lon;timestamp;P1;durP1;ratioP1;P2;durP2;ratioP2
45836;SDS011;31548;51.420;-0.040;2024-03-06T00:00:34;20.02;;;10.25;;
45836;SDS011;31548;51.420;-0.040;2024-03-06T00:03:02;15.98;;;9.55;;
45836;SDS011;31548;51.420;-0.040;2024-03-06T00:05:29;19.02;;;8.75;;
45836;SDS011;31548;51.420;-0.040;2024-03-06T00:07:57;16.00;;;9.15;;
45836;SDS011;31548;51.420;-0.040;2024-03-06T00:10:24;17.20;;;8.70;;
45836;SDS011;31548;51.420;-0.040;2024-03-06T00:12:51;14.95;;;9.20;;
45836;SDS011;31548;51.420;-0.040;2024-03-06T00:15:18;15.90;;;9.73;;
45836;SDS011;31548;51.420;-0.040;2024-03-06T00:17:46;19.17;;;10.93;;
45836;SDS011;31548;51.420;-0.040;2024-03-06T00:20:13;15.95;;;9.23;;
45836;SDS011;31548;51.420;-0.040;2024-03-06T00:22:41;16.00;;;8.52;;
45836;SDS011;31548;51.420;-0.040;2024-03-06T00:25:08;13.57;;;8.43;;
45836;SDS011;31548;51.420;-0.040;2024-03-06T00:27:35;18.23;;;10.18;;
45836;SDS011;31548;51.420;-0.040;2024-03-06T00:30:03;15.23;;;8.48;;
45836;SDS011;31548;51.420;-0.040;2024-03-06T00:32:30;14.75;;;9.25;;
45836;SDS011;31548;51.420;-0.040;2024-03-06T00:34:58;22.98;;;11.52;;
45836;SDS011;31548;51.420;-0.040;2024-03-06T00:37:25;18.27;;;10.45;;
45836;SDS011;31548;51.420;-0.040;2024-03-06T00:39:52;17.20;;;10.20;;
45836;SDS011;31548;51.420;-0.040;2024-03-06T00:42:20;18.48;;;10.52;;
45836;SDS011;31548;51.420;-0.040;2024-03-06T00:44:47;23.67;;;13.40;;
45836;SDS011;31548;51.420;-0.040;2024-03-06T00:47:14;19.02;;;11.02;;
45836;SDS011;31548;51.420;-0.040;2024-03-06T00:49:42;19.35;;;11.88;;
45836;SDS011;31548;51.420;-0.040;2024-03-06T00:52:09;20.10;;;11.00;;
45836;SDS011;31548;51.420;-0.040;2024-03-06T00:54:36;20.48;;;11.52;;
45836;SDS011;31548;51.420;-0.040;2024-03-06T00:57:04;19.27;;;10.98;;
45836;SDS011;31548;51.420;-0.040;2024-03-06T00:59:31;17.35;;;10.45;;
45836;SDS011;31548;51.420;-0.040;2024-03-06T01:01:58;19.10;;;11.55;;
45836;SDS011;31548;51.420;-0.040;2024-03-06T01:04:26;22.55;;;11.80;;
45836;SDS011;31548;51.420;-0.040;2024-03-06T01:06:53;20.67;;;10.55;;
45836;SDS011;31548;51.420;-0.040;2024-03-06T01:09:20;17.45;;;9.48;;
45836;SDS011;31548;51.420;-0.040;2024-03-06T01:11:48;14.98;;;9.48;;
45836;SDS011;31548;51.420;-0.040;2024-03-06T01:14:15;17.98;;;11.15;;
45836;SDS011;31548;51.420;-0.040;2024-03-06T01:16:43;18.27;;;10.95;;
45836;SDS011;31548;51.420;-0.040;2024-03-06T01:19:10;20.33;;;10.95;;
45836;SDS011;31548;51.420;-0.040;2024-03-06T01:21:38;19.58;;;10.48;;
45836;SDS011;31548;51.420;-0.040;2024-03-06T01:24:05;18.30;;;11.02;;
45836;SDS011;31548;51.420;-0.040;2024-03-06T01:26:33;23.25;;;11.80;;
45836;SDS011;31548;51.420;-0.040;2024-03-06T01:29:00;15.60;;;9.50;;
45836;SDS011;31548;51.420;-0.040;2024-03-06T01:31:28;17.65;;;10.80;;
45836;SDS011;31548;51.420;-0.040;2024-03-06T01:33:55;17.80;;;10.50;;
45836;SDS011;31548;51.420;-0.040;2024-03-06T01:36:23;18.67;;;11.18;;
45836;SDS011;31548;51.420;-0.040;2024-03-06T01:38:50;18.65;;;11.18;;
45836;SDS011;31548;51.420;-0.040;2024-03-06T01:41:18;16.17;;;10.20;;
45836;SDS011;31548;51.420;-0.040;2024-03-06T01:43:48;18.48;;;10.07;;
45836;SDS011;31548;51.420;-0.040;2024-03-06T01:46:15;20.38;;;10.05;;
45836;SDS011;31548;51.420;-0.040;2024-03-06T01:48:42;21.15;;;9.90;;
45836;SDS011;31548;51.420;-0.040;2024-03-06T01:51:10;18.08;;;10.57;;
45836;SDS011;31548;51.420;-0.040;2024-03-06T01:53:38;16.10;;;10.15;;
45836;SDS011;31548;51.420;-0.040;2024-03-06T01:56:06;16.13;;;9.82;;
45836;SDS011;31548;51.420;-0.040;2024-03-06T01:58:38;21.70;;;11.35;;
45836;SDS011;31548;51.420;-0.040;2024-03-06T02:01:06;16.38;;;9.25;;
45836;SDS011;31548;51.420;-0.040;2024-03-06T02:03:34;14.18;;;9.27;;
45836;SDS011;31548;51.420;-0.040;2024-03-06T02:06:02;19.85;;;11.85;;
45836;SDS011;31548;51.420;-0.040;2024-03-06T02:08:30;19.20;;;10.65;;
45836;SDS011;31548;51.420;-0.040;2024-03-06T02:10:57;21.10;;;11.40;;
45836;SDS011;31548;51.420;-0.040;2024-03-06T02:13:27;13.95;;;9.45;;
45836;SDS011;31548;51.420;-0.040;2024-03-06T02:15:54;20.38;;;10.75;;
45836;SDS011;31548;51.420;-0.040;2024-03-06T02:18:22;17.23;;;9.57;;
45836;SDS011;31548;51.420;-0.040;2024-03-06T02:20:49;24.77;;;11.63;;
45836;SDS011;31548;51.420;-0.040;2024-03-06T02:23:17;22.08;;;11.27;;
45836;SDS011;31548;51.420;-0.040;2024-03-06T02:25:45;21.85;;;11.05;;
45836;SDS011;31548;51.420;-0.040;2024-03-06T02:28:15;19.48;;;10.50;;
45836;SDS011;31548;51.420;-0.040;2024-03-06T02:30:43;21.42;;;11.00;;
45836;SDS011;31548;51.420;-0.040;2024-03-06T02:33:11;21.58;;;10.18;;
45836;SDS011;31548;51.420;-0.040;2024-03-06T02:35:38;20.75;;;10.80;;
45836;SDS011;31548;51.420;-0.040;2024-03-06T02:38:06;18.48;;;10.02;;
45836;SDS011;31548;51.420;-0.040;2024-03-06T02:40:34;18.38;;;10.82;;
45836;SDS011;31548;51.420;-0.040;2024-03-06T02:43:01;17.58;;;9.57;;
45836;SDS011;31548;51.420;-0.040;2024-03-06T02:45:29;16.05;;;8.63;;
45836;SDS011;31548;51.420;-0.040;2024-03-06T02:47:56;13.52;;;9.05;;
45836;SDS011;31548;51.420;-0.040;2024-03-06T02:50:23;13.85;;;7.97;;
45836;SDS011;31548;51.420;-0.040;2024-03-06T02:52:51;20.77;;;9.07;;
45836;SDS011;31548;51.420;-0.040;2024-03-06T02:55:21;15.75;;;8.73;;
45836;SDS011;31548;51.420;-0.040;2024-03-06T02:57:50;18.58;;;9.50;;
45836;SDS011;31548;51.420;-0.040;2024-03-06T03:00:17;21.90;;;11.05;;
45836;SDS011;31548;51.420;-0.040;2024-03-06T03:02:45;12.35;;;7.80;;
45836;SDS011;31548;51.420;-0.040;2024-03-06T03:05:12;18.52;;;11.23;;
45836;SDS011;31548;51.420;-0.040;2024-03-06T03:07:39;20.17;;;11.18;;
45836;SDS011;31548;51.420;-0.040;2024-03-06T03:10:06;21.25;;;11.07;;
45836;SDS011;31548;51.420;-0.040;2024-03-06T03:12:34;19.38;;;10.20;;
45836;SDS011;31548;51.420;-0.040;2024-03-06T03:15:02;22.40;;;11.60;;
45836;SDS011;31548;51.420;-0.040;2024-03-06T03:17:29;23.15;;;11.75;;
45836;SDS011;31548;51.420;-0.040;2024-03-06T03:19:57;19.48;;;10.65;;
45836;SDS011;31548;51.420;-0.040;2024-03-06T03:22:24;21.98;;;10.95;;
45836;SDS011;31548;51.420;-0.040;2024-03-06T03:24:51;27.75;;;14.35;;
45836;SDS011;31548;51.420;-0.040;2024-03-06T03:27:19;30.67;;;15.30;;
45836;SDS011;31548;51.420;-0.040;2024-03-06T03:29:46;22.77;;;12.95;;
45836;SDS011;31548;51.420;-0.040;2024-03-06T03:32:13;24.95;;;13.15;;
45836;SDS011;31548;51.420;-0.040;2024-03-06T03:34:43;24.83;;;13.65;;
45836;SDS011;31548;51.420;-0.040;2024-03-06T03:37:12;26.70;;;13.52;;
45836;SDS011;31548;51.420;-0.040;2024-03-06T03:39:39;24.45;;;13.55;;
45836;SDS011;31548;51.420;-0.040;2024-03-06T03:42:08;22.80;;;12.82;;
45836;SDS011;31548;51.420;-0.040;2024-03-06T03:44:36;24.90;;;12.63;;
45836;SDS011;31548;51.420;-0.040;2024-03-06T03:47:03;23.60;;;12.20;;
45836;SDS011;31548;51.420;-0.040;2024-03-06T03:49:30;26.13;;;13.00;;
45836;SDS011;31548;51.420;-0.040;2024-03-06T03:51:58;21.35;;;11.80;;
45836;SDS011;31548;51.420;-0.040;2024-03-06T03:54:25;23.98;;;12.80;;
45836;SDS011;31548;51.420;-0.040;2024-03-06T03:56:52;21.90;;;11.75;;
45836;SDS011;31548;51.420;-0.040;2024-03-06T03:59:20;25.73;;;12.98;;
45836;SDS011;31548;51.420;-0.040;2024-03-06T04:01:47;22.98;;;12.32;;
45836;SDS011;31548;51.420;-0.040;2024-03-06T04:04:15;29.15;;;12.88;;
45836;SDS011;31548;51.420;-0.040;2024-03-06T04:06:42;31.75;;;14.10;;
45836;SDS011;31548;51.420;-0.040;2024-03-06T04:09:10;34.03;;;16.50;;
45836;SDS011;31548;51.420;-0.040;2024-03-06T04:11:37;26.95;;;14.18;;
45836;SDS011;31548;51.420;-0.040;2024-03-06T04:14:05;28.70;;;14.32;;
45836;SDS011;31548;51.420;-0.040;2024-03-06T04:16:33;27.38;;;13.98;;
45836;SDS011;31548;51.420;-0.040;2024-03-06T04:19:01;30.23;;;15.82;;
45836;SDS011;31548;51.420;-0.040;2024-03-06T04:21:28;28.10;;;14.05;;
45836;SDS011;31548;51.420;-0.040;2024-03-06T04:23:56;32.17;;;15.45;;
45836;SDS011;31548;51.420;-0.040;2024-03-06T04:26:25;25.83;;;14.18;;
45836;SDS011;31548;51.420;-0.040;2024-03-06T04:28:52;31.70;;;14.82;;
45836;SDS011;31548;51.420;-0.040;2024-03-06T04:31:19;27.90;;;14.65;;
45836;SDS011;31548;51.420;-0.040;2024-03-06T04:33:46;32.35;;;15.02;;
45836;SDS011;31548;51.420;-0.040;2024-03-06T04:36:14;34.55;;;14.63;;
45836;SDS011;31548;51.420;-0.040;2024-03-06T04:38:41;30.60;;;14.43;;
45836;SDS011;31548;51.420;-0.040;2024-03-06T04:41:08;31.65;;;16.02;;
45836;SDS011;31548;51.420;-0.040;2024-03-06T04:43:37;27.35;;;15.25;;
45836;SDS011;31548;51.420;-0.040;2024-03-06T04:46:05;30.20;;;16.05;;
45836;SDS011;31548;51.420;-0.040;2024-03-06T04:48:32;30.75;;;15.20;;
45836;SDS011;31548;51.420;-0.040;2024-03-06T04:50:59;36.35;;;15.23;;
45836;SDS011;31548;51.420;-0.040;2024-03-06T04:53:26;26.35;;;13.90;;
45836;SDS011;31548;51.420;-0.040;2024-03-06T04:55:53;31.38;;;15.30;;
45836;SDS011;31548;51.420;-0.040;2024-03-06T04:58:21;32.33;;;16.27;;
45836;SDS011;31548;51.420;-0.040;2024-03-06T05:00:48;33.58;;;16.40;;
45836;SDS011;31548;51.420;-0.040;2024-03-06T05:03:16;29.70;;;16.25;;
45836;SDS011;31548;51.420;-0.040;2024-03-06T05:08:45;32.25;;;15.18;;
45836;SDS011;31548;51.420;-0.040;2024-03-06T05:11:30;30.55;;;16.58;;
45836;SDS011;31548;51.420;-0.040;2024-03-06T05:14:15;30.25;;;14.68;;
45836;SDS011;31548;51.420;-0.040;2024-03-06T05:19:45;32.05;;;15.73;;
45836;SDS011;31548;51.420;-0.040;2024-03-06T05:22:31;31.88;;;15.70;;
45836;SDS011;31548;51.420;-0.040;2024-03-06T05:25:16;23.75;;;12.13;;
45836;SDS011;31548;51.420;-0.040;2024-03-06T05:28:00;31.83;;;14.77;;
45836;SDS011;31548;51.420;-0.040;2024-03-06T05:30:45;29.02;;;14.85;;
45836;SDS011;31548;51.420;-0.040;2024-03-06T05:33:35;30.05;;;13.02;;
45836;SDS011;31548;51.420;-0.040;2024-03-06T05:36:20;31.40;;;14.20;;
45836;SDS011;31548;51.420;-0.040;2024-03-06T05:39:05;34.40;;;15.68;;
45836;SDS011;31548;51.420;-0.040;2024-03-06T05:41:51;26.50;;;14.75;;
45836;SDS011;31548;51.420;-0.040;2024-03-06T05:44:37;29.27;;;14.85;;
45836;SDS011;31548;51.420;-0.040;2024-03-06T05:47:22;28.00;;;14.32;;
45836;SDS011;31548;51.420;-0.040;2024-03-06T05:50:06;29.52;;;14.63;;
45836;SDS011;31548;51.420;-0.040;2024-03-06T05:52:52;28.85;;;14.55;;
45836;SDS011;31548;51.420;-0.040;2024-03-06T05:55:36;25.77;;;13.07;;
45836;SDS011;31548;51.420;-0.040;2024-03-06T05:58:21;34.10;;;15.23;;
45836;SDS011;31548;51.420;-0.040;2024-03-06T06:00:48;29.48;;;13.93;;
45836;SDS011;31548;51.420;-0.040;2024-03-06T06:03:16;27.70;;;14.93;;
45836;SDS011;31548;51.420;-0.040;2024-03-06T06:05:44;31.30;;;14.88;;
45836;SDS011;31548;51.420;-0.040;2024-03-06T06:08:12;28.60;;;15.05;;
45836;SDS011;31548;51.420;-0.040;2024-03-06T06:10:39;27.08;;;14.27;;
45836;SDS011;31548;51.420;-0.040;2024-03-06T06:13:06;32.15;;;14.88;;
45836;SDS011;31548;51.420;-0.040;2024-03-06T06:15:34;27.02;;;14.60;;
45836;SDS011;31548;51.420;-0.040;2024-03-06T06:18:01;29.10;;;15.02;;
45836;SDS011;31548;51.420;-0.040;2024-03-06T06:20:28;30.58;;;14.35;;
45836;SDS011;31548;51.420;-0.040;2024-03-06T06:22:57;30.27;;;15.10;;
45836;SDS011;31548;51.420;-0.040;2024-03-06T06:25:24;30.23;;;15.13;;
45836;SDS011;31548;51.420;-0.040;2024-03-06T06:27:51;28.80;;;14.55;;
45836;SDS011;31548;51.420;-0.040;2024-03-06T06:30:19;29.80;;;15.52;;
45836;SDS011;31548;51.420;-0.040;2024-03-06T06:32:46;29.65;;;15.40;;
45836;SDS011;31548;51.420;-0.040;2024-03-06T06:35:13;29.45;;;14.75;;
45836;SDS011;31548;51.420;-0.040;2024-03-06T06:37:41;28.77;;;14.75;;
45836;SDS011;31548;51.420;-0.040;2024-03-06T06:40:08;34.47;;;15.90;;
45836;SDS011;31548;51.420;-0.040;2024-03-06T06:42:37;30.23;;;14.90;;
45836;SDS011;31548;51.420;-0.040;2024-03-06T06:45:05;39.47;;;16.30;;
45836;SDS011;31548;51.420;-0.040;2024-03-06T06:47:36;33.70;;;16.30;;
45836;SDS011;31548;51.420;-0.040;2024-03-06T06:50:04;39.50;;;18.02;;
45836;SDS011;31548;51.420;-0.040;2024-03-06T06:52:32;42.90;;;20.15;;
45836;SDS011;31548;51.420;-0.040;2024-03-06T06:55:01;45.70;;;20.67;;
45836;SDS011;31548;51.420;-0.040;2024-03-06T06:57:29;45.42;;;21.35;;
45836;SDS011;31548;51.420;-0.040;2024-03-06T06:59:57;40.15;;;20.10;;
45836;SDS011;31548;51.420;-0.040;2024-03-06T07:02:25;39.75;;;19.48;;
45836;SDS011;31548;51.420;-0.040;2024-03-06T07:04:52;46.65;;;21.95;;
45836;SDS011;31548;51.420;-0.040;2024-03-06T07:07:20;46.97;;;23.20;;
45836;SDS011;31548;51.420;-0.040;2024-03-06T07:09:48;49.47;;;22.52;;
45836;SDS011;31548;51.420;-0.040;2024-03-06T07:12:15;53.58;;;24.95;;
45836;SDS011;31548;51.420;-0.040;2024-03-06T07:14:43;44.30;;;21.23;;
45836;SDS011;31548;51.420;-0.040;2024-03-06T07:17:10;48.92;;;23.77;;
45836;SDS011;31548;51.420;-0.040;2024-03-06T07:19:37;54.88;;;24.20;;
45836;SDS011;31548;51.420;-0.040;2024-03-06T07:22:06;57.97;;;24.02;;
45836;SDS011;31548;51.420;-0.040;2024-03-06T07:24:34;51.35;;;24.55;;
45836;SDS011;31548;51.420;-0.040;2024-03-06T07:27:05;56.83;;;27.05;;
45836;SDS011;31548;51.420;-0.040;2024-03-06T07:29:32;54.45;;;24.55;;
45836;SDS011;31548;51.420;-0.040;2024-03-06T07:32:00;64.40;;;27.17;;
45836;SDS011;31548;51.420;-0.040;2024-03-06T07:34:27;60.00;;;26.15;;
45836;SDS011;31548;51.420;-0.040;2024-03-06T07:36:55;56.22;;;25.92;;
45836;SDS011;31548;51.420;-0.040;2024-03-06T07:39:22;62.55;;;26.95;;
45836;SDS011;31548;51.420;-0.040;2024-03-06T07:41:49;53.47;;;25.83;;
45836;SDS011;31548;51.420;-0.040;2024-03-06T07:44:17;55.08;;;25.10;;
45836;SDS011;31548;51.420;-0.040;2024-03-06T07:46:45;51.10;;;24.10;;
45836;SDS011;31548;51.420;-0.040;2024-03-06T07:49:12;57.17;;;26.23;;
45836;SDS011;31548;51.420;-0.040;2024-03-06T07:51:39;56.25;;;26.38;;
45836;SDS011;31548;51.420;-0.040;2024-03-06T07:54:08;54.28;;;25.70;;
45836;SDS011;31548;51.420;-0.040;2024-03-06T07:56:35;50.53;;;25.73;;
45836;SDS011;31548;51.420;-0.040;2024-03-06T07:59:03;56.75;;;26.00;;
45836;SDS011;31548;51.420;-0.040;2024-03-06T08:01:31;58.55;;;26.52;;
45836;SDS011;31548;51.420;-0.040;2024-03-06T08:03:59;59.92;;;25.13;;
45836;SDS011;31548;51.420;-0.040;2024-03-06T08:06:27;60.50;;;26.17;;
45836;SDS011;31548;51.420;-0.040;2024-03-06T08:08:56;58.92;;;28.90;;
45836;SDS011;31548;51.420;-0.040;2024-03-06T08:11:26;57.42;;;27.02;;
45836;SDS011;31548;51.420;-0.040;2024-03-06T08:13:57;55.03;;;25.27;;
45836;SDS011;31548;51.420;-0.040;2024-03-06T08:16:25;59.53;;;28.20;;
45836;SDS011;31548;51.420;-0.040;2024-03-06T08:18:52;56.25;;;26.27;;
45836;SDS011;31548;51.420;-0.040;2024-03-06T08:21:20;55.88;;;25.83;;
45836;SDS011;31548;51.420;-0.040;2024-03-06T08:23:47;55.97;;;26.48;;
45836;SDS011;31548;51.420;-0.040;2024-03-06T08:26:16;56.00;;;26.60;;
45836;SDS011;31548;51.420;-0.040;2024-03-06T08:28:44;62.28;;;26.52;;
45836;SDS011;31548;51.420;-0.040;2024-03-06T08:31:12;59.67;;;27.75;;
45836;SDS011;31548;51.420;-0.040;2024-03-06T08:33:39;56.33;;;26.52;;
45836;SDS011;31548;51.420;-0.040;2024-03-06T08:36:06;63.28;;;29.05;;
45836;SDS011;31548;51.420;-0.040;2024-03-06T08:38:34;54.25;;;25.42;;
45836;SDS011;31548;51.420;-0.040;2024-03-06T08:41:01;65.75;;;27.15;;
45836;SDS011;31548;51.420;-0.040;2024-03-06T08:43:28;67.43;;;29.55;;
45836;SDS011;31548;51.420;-0.040;2024-03-06T08:45:56;62.78;;;26.92;;
45836;SDS011;31548;51.420;-0.040;2024-03-06T08:48:23;62.55;;;27.42;;
45836;SDS011;31548;51.420;-0.040;2024-03-06T08:50:50;62.63;;;29.10;;
45836;SDS011;31548;51.420;-0.040;2024-03-06T08:53:19;56.50;;;26.33;;
45836;SDS011;31548;51.420;-0.040;2024-03-06T08:55:47;54.08;;;25.30;;
45836;SDS011;31548;51.420;-0.040;2024-03-06T08:58:14;60.67;;;28.65;;
45836;SDS011;31548;51.420;-0.040;2024-03-06T09:00:42;54.92;;;26.27;;
45836;SDS011;31548;51.420;-0.040;2024-03-06T09:03:09;59.13;;;27.02;;
45836;SDS011;31548;51.420;-0.040;2024-03-06T09:05:37;64.45;;;29.63;;
45836;SDS011;31548;51.420;-0.040;2024-03-06T09:08:04;63.33;;;29.73;;
45836;SDS011;31548;51.420;-0.040;2024-03-06T09:10:35;62.15;;;27.58;;
45836;SDS011;31548;51.420;-0.040;2024-03-06T09:13:03;70.35;;;29.40;;
45836;SDS011;31548;51.420;-0.040;2024-03-06T09:15:30;66.82;;;30.00;;
45836;SDS011;31548;51.420;-0.040;2024-03-06T09:17:57;64.80;;;30.67;;
45836;SDS011;31548;51.420;-0.040;2024-03-06T09:20:25;71.95;;;29.02;;
45836;SDS011;31548;51.420;-0.040;2024-03-06T09:22:52;58.70;;;27.70;;
45836;SDS011;31548;51.420;-0.040;2024-03-06T09:25:23;63.75;;;27.85;;
45836;SDS011;31548;51.420;-0.040;2024-03-06T09:27:55;66.30;;;29.08;;
45836;SDS011;31548;51.420;-0.040;2024-03-06T09:30:23;70.20;;;31.25;;
45836;SDS011;31548;51.420;-0.040;2024-03-06T09:32:50;62.42;;;29.73;;
45836;SDS011;31548;51.420;-0.040;2024-03-06T09:35:19;63.88;;;29.55;;
45836;SDS011;31548;51.420;-0.040;2024-03-06T09:37:46;65.22;;;29.42;;
45836;SDS011;31548;51.420;-0.040;2024-03-06T09:40:19;67.32;;;29.95;;
45836;SDS011;31548;51.420;-0.040;2024-03-06T09:42:50;62.20;;;28.83;;
45836;SDS011;31548;51.420;-0.040;2024-03-06T09:45:18;64.10;;;27.70;;
45836;SDS011;31548;51.420;-0.040;2024-03-06T09:47:49;56.90;;;26.67;;
45836;SDS011;31548;51.420;-0.040;2024-03-06T09:50:22;48.63;;;23.25;;
45836;SDS011;31548;51.420;-0.040;2024-03-06T09:52:52;57.30;;;25.50;;
45836;SDS011;31548;51.420;-0.040;2024-03-06T09:55:22;49.75;;;23.33;;
45836;SDS011;31548;51.420;-0.040;2024-03-06T09:57:50;39.78;;;19.02;;
45836;SDS011;31548;51.420;-0.040;2024-03-06T10:00:18;55.40;;;25.58;;
45836;SDS011;31548;51.420;-0.040;2024-03-06T10:02:50;56.03;;;25.08;;
45836;SDS011;31548;51.420;-0.040;2024-03-06T10:05:23;59.05;;;25.88;;
45836;SDS011;31548;51.420;-0.040;2024-03-06T10:07:51;49.83;;;23.08;;
45836;SDS011;31548;51.420;-0.040;2024-03-06T10:10:20;42.53;;;21.75;;
45836;SDS011;31548;51.420;-0.040;2024-03-06T10:12:50;47.35;;;21.40;;
45836;SDS011;31548;51.420;-0.040;2024-03-06T10:15:17;55.45;;;23.35;;
45836;SDS011;31548;51.420;-0.040;2024-03-06T10:17:45;48.97;;;21.52;;
45836;SDS011;31548;51.420;-0.040;2024-03-06T10:20:23;51.65;;;23.63;;
45836;SDS011;31548;51.420;-0.040;2024-03-06T10:22:52;44.78;;;21.40;;
45836;SDS011;31548;51.420;-0.040;2024-03-06T10:25:25;46.75;;;21.40;;
45836;SDS011;31548;51.420;-0.040;2024-03-06T10:30:38;50.40;;;23.67;;
45836;SDS011;31548;51.420;-0.040;2024-03-06T10:33:10;52.25;;;23.52;;
45836;SDS011;31548;51.420;-0.040;2024-03-06T10:35:39;46.95;;;21.98;;
45836;SDS011;31548;51.420;-0.040;2024-03-06T10:38:08;42.85;;;21.45;;
45836;SDS011;31548;51.420;-0.040;2024-03-06T10:40:38;44.15;;;20.67;;
45836;SDS011;31548;51.420;-0.040;2024-03-06T10:43:07;47.90;;;23.52;;
45836;SDS011;31548;51.420;-0.040;2024-03-06T10:48:14;39.45;;;19.90;;
45836;SDS011;31548;51.420;-0.040;2024-03-06T10:50:43;36.25;;;17.98;;
45836;SDS011;31548;51.420;-0.040;2024-03-06T10:53:15;37.78;;;18.25;;
45836;SDS011;31548;51.420;-0.040;2024-03-06T10:55:49;32.65;;;16.52;;
45836;SDS011;31548;51.420;-0.040;2024-03-06T10:58:17;30.58;;;14.38;;
45836;SDS011;31548;51.420;-0.040;2024-03-06T11:00:47;30.65;;;14.52;;
45836;SDS011;31548;51.420;-0.040;2024-03-06T11:03:15;31.70;;;14.45;;
45836;SDS011;31548;51.420;-0.040;2024-03-06T11:05:44;31.63;;;16.17;;
45836;SDS011;31548;51.420;-0.040;2024-03-06T11:08:18;32.97;;;16.17;;
45836;SDS011;31548;51.420;-0.040;2024-03-06T11:10:47;30.20;;;15.07;;
45836;SDS011;31548;51.420;-0.040;2024-03-06T11:15:53;31.90;;;17.27;;
45836;SDS011;31548;51.420;-0.040;2024-03-06T11:23:31;37.40;;;18.23;;
45836;SDS011;31548;51.420;-0.040;2024-03-06T11:26:03;31.42;;;16.15;;
45836;SDS011;31548;51.420;-0.040;2024-03-06T11:28:32;31.27;;;15.43;;
45836;SDS011;31548;51.420;-0.040;2024-03-06T11:33:39;29.40;;;13.60;;
45836;SDS011;31548;51.420;-0.040;2024-03-06T11:36:27;34.22;;;15.43;;
45836;SDS011;31548;51.420;-0.040;2024-03-06T11:38:59;38.00;;;19.30;;
45836;SDS011;31548;51.420;-0.040;2024-03-06T11:44:20;32.92;;;15.27;;
45836;SDS011;31548;51.420;-0.040;2024-03-06T11:46:56;25.75;;;14.38;;
45836;SDS011;31548;51.420;-0.040;2024-03-06T11:49:29;37.35;;;19.90;;
45836;SDS011;31548;51.420;-0.040;2024-03-06T11:52:04;36.05;;;18.45;;
45836;SDS011;31548;51.420;-0.040;2024-03-06T11:54:34;28.10;;;13.65;;
45836;SDS011;31548;51.420;-0.040;2024-03-06T11:57:03;22.77;;;10.68;;
45836;SDS011;31548;51.420;-0.040;2024-03-06T11:59:34;15.40;;;8.40;;
45836;SDS011;31548;51.420;-0.040;2024-03-06T12:02:05;18.05;;;8.90;;
45836;SDS011;31548;51.420;-0.040;2024-03-06T12:04:34;25.92;;;11.13;;
45836;SDS011;31548;51.420;-0.040;2024-03-06T12:07:06;20.92;;;11.05;;
45836;SDS011;31548;51.420;-0.040;2024-03-06T12:09:37;23.98;;;12.10;;
45836;SDS011;31548;51.420;-0.040;2024-03-06T12:12:09;28.23;;;15.13;;
45836;SDS011;31548;51.420;-0.040;2024-03-06T12:14:38;27.15;;;14.13;;
45836;SDS011;31548;51.420;-0.040;2024-03-06T12:17:10;26.00;;;13.02;;
45836;SDS011;31548;51.420;-0.040;2024-03-06T12:19:41;22.15;;;12.90;;
45836;SDS011;31548;51.420;-0.040;2024-03-06T12:22:11;19.70;;;10.80;;
45836;SDS011;31548;51.420;-0.040;2024-03-06T12:24:39;19.45;;;10.93;;
45836;SDS011;31548;51.420;-0.040;2024-03-06T12:27:07;13.82;;;6.95;;
45836;SDS011;31548;51.420;-0.040;2024-03-06T12:29:35;12.98;;;6.75;;
45836;SDS011;31548;51.420;-0.040;2024-03-06T12:32:05;12.43;;;5.95;;
45836;SDS011;31548;51.420;-0.040;2024-03-06T12:34:45;16.35;;;6.47;;
45836;SDS011;31548;51.420;-0.040;2024-03-06T12:37:28;10.60;;;5.82;;
45836;SDS011;31548;51.420;-0.040;2024-03-06T12:40:00;11.35;;;5.80;;
45836;SDS011;31548;51.420;-0.040;2024-03-06T12:42:30;12.07;;;6.57;;
45836;SDS011;31548;51.420;-0.040;2024-03-06T12:44:58;12.52;;;5.75;;
45836;SDS011;31548;51.420;-0.040;2024-03-06T12:47:26;11.27;;;6.47;;
45836;SDS011;31548;51.420;-0.040;2024-03-06T12:49:53;8.85;;;5.63;;
45836;SDS011;31548;51.420;-0.040;2024-03-06T12:52:20;13.70;;;5.82;;
45836;SDS011;31548;51.420;-0.040;2024-03-06T12:54:48;16.40;;;6.13;;
45836;SDS011;31548;51.420;-0.040;2024-03-06T12:57:16;13.45;;;5.80;;
45836;SDS011;31548;51.420;-0.040;2024-03-06T12:59:44;12.73;;;6.30;;
45836;SDS011;31548;51.420;-0.040;2024-03-06T13:02:11;13.02;;;7.07;;
45836;SDS011;31548;51.420;-0.040;2024-03-06T13:04:39;14.27;;;6.22;;
45836;SDS011;31548;51.420;-0.040;2024-03-06T13:07:06;12.93;;;6.07;;
45836;SDS011;31548;51.420;-0.040;2024-03-06T13:09:33;9.98;;;5.75;;
45836;SDS011;31548;51.420;-0.040;2024-03-06T13:12:00;8.45;;;5.25;;
45836;SDS011;31548;51.420;-0.040;2024-03-06T13:14:29;13.95;;;7.13;;
45836;SDS011;31548;51.420;-0.040;2024-03-06T13:16:57;12.05;;;6.20;;
45836;SDS011;31548;51.420;-0.040;2024-03-06T13:19:25;9.23;;;5.22;;
45836;SDS011;31548;51.420;-0.040;2024-03-06T13:21:52;9.18;;;5.53;;
45836;SDS011;31548;51.420;-0.040;2024-03-06T13:24:19;5.47;;;4.00;;
45836;SDS011;31548;51.420;-0.040;2024-03-06T13:26:47;7.55;;;4.22;;
45836;SDS011;31548;51.420;-0.040;2024-03-06T13:29:14;8.38;;;4.45;;
45836;SDS011;31548;51.420;-0.040;2024-03-06T13:31:41;8.05;;;4.57;;
45836;SDS011;31548;51.420;-0.040;2024-03-06T13:34:09;10.73;;;5.40;;
45836;SDS011;31548;51.420;-0.040;2024-03-06T13:36:36;8.27;;;4.95;;
45836;SDS011;31548;51.420;-0.040;2024-03-06T13:39:03;12.38;;;5.38;;
45836;SDS011;31548;51.420;-0.040;2024-03-06T13:41:31;14.45;;;6.45;;
45836;SDS011;31548;51.420;-0.040;2024-03-06T13:43:58;14.75;;;6.25;;
45836;SDS011;31548;51.420;-0.040;2024-03-06T13:46:26;13.30;;;7.35;;
45836;SDS011;31548;51.420;-0.040;2024-03-06T13:48:53;14.98;;;6.20;;
45836;SDS011;31548;51.420;-0.040;2024-03-06T13:51:21;11.40;;;5.45;;
45836;SDS011;31548;51.420;-0.040;2024-03-06T13:53:48;11.40;;;6.60;;
45836;SDS011;31548;51.420;-0.040;2024-03-06T13:56:16;14.30;;;6.15;;
45836;SDS011;31548;51.420;-0.040;2024-03-06T13:58:44;12.55;;;6.00;;
45836;SDS011;31548;51.420;-0.040;2024-03-06T14:01:11;12.65;;;5.95;;
45836;SDS011;31548;51.420;-0.040;2024-03-06T14:03:39;12.80;;;5.95;;
45836;SDS011;31548;51.420;-0.040;2024-03-06T14:06:07;7.68;;;4.65;;
45836;SDS011;31548;51.420;-0.040;2024-03-06T14:08:36;10.45;;;5.50;;
45836;SDS011;31548;51.420;-0.040;2024-03-06T14:11:06;10.93;;;5.25;;
45836;SDS011;31548;51.420;-0.040;2024-03-06T14:13:34;10.43;;;5.63;;
45836;SDS011;31548;51.420;-0.040;2024-03-06T14:16:01;14.27;;;6.03;;
45836;SDS011;31548;51.420;-0.040;2024-03-06T14:18:30;13.57;;;6.80;;
45836;SDS011;31548;51.420;-0.040;2024-03-06T14:20:57;11.23;;;6.28;;
45836;SDS011;31548;51.420;-0.040;2024-03-06T14:23:25;15.85;;;7.70;;
45836;SDS011;31548;51.420;-0.040;2024-03-06T14:25:52;14.30;;;8.00;;
45836;SDS011;31548;51.420;-0.040;2024-03-06T14:28:19;17.80;;;8.30;;
45836;SDS011;31548;51.420;-0.040;2024-03-06T14:30:47;13.48;;;7.10;;
45836;SDS011;31548;51.420;-0.040;2024-03-06T14:33:14;15.40;;;7.72;;
45836;SDS011;31548;51.420;-0.040;2024-03-06T14:35:41;12.70;;;6.60;;
45836;SDS011;31548;51.420;-0.040;2024-03-06T14:38:09;12.45;;;5.43;;
45836;SDS011;31548;51.420;-0.040;2024-03-06T14:40:36;16.60;;;7.28;;
45836;SDS011;31548;51.420;-0.040;2024-03-06T14:43:03;10.20;;;6.68;;
45836;SDS011;31548;51.420;-0.040;2024-03-06T14:45:35;13.60;;;6.75;;
45836;SDS011;31548;51.420;-0.040;2024-03-06T14:48:09;17.75;;;8.90;;